Latest Weather Observations for Melbourne (Olympic Park)

IDV60801

Issued at 10:05 am EST Monday 22 September 2014 (issued every 30 minutes, with the page automatically refreshed every 10 minutes)

About weather observations | Map of weather stations | Latest weather observations for VIC | Other Formats
Station Details ID: 086338 Name: MELBOURNE (OLYMPIC PARK) Lat: -37.83 Lon: 144.98 Height: 7.53 m
Data from the previous 72 hours. | See also: Recent months at Melbourne (Olympic Park)
Date/Time
EST
Temp
°C
App
Temp
°C
Dew
Point
Rel
Hum
%
Delta-T
°C
Wind Press
QNH
hPa
Press
MSL
hPa
Rain
since 9 am
mm
Dir
 
Spd
km/h
Gust
km/h
Spd
kts
Gust
kts
22/10:00am 15.4 13.7 8.2 62 3.6 N 7 13 4 7 1029.5 1029.5 0.0
22/09:30am 13.8 12.2 8.2 69 2.8 NNE 6 11 3 6 1029.8 1029.8 0.0
22/09:00am 11.9 10.5 7.2 73 2.2 NNE 4 9 2 5 1030.0 1030.0 0.0
22/08:30am 9.8 7.9 6.5 80 1.5 NNE 6 7 3 4 1029.9 1029.9 0.0
22/08:00am 8.0 5.6 5.3 83 1.2 NNE 7 9 4 5 1030.0 1030.0 0.0
22/07:30am 6.4 3.1 4.7 89 0.7 NNE 11 15 6 8 1029.9 1029.9 0.0
22/07:00am 5.7 2.3 4.2 90 0.6 NNE 11 15 6 8 1029.7 1029.7 0.0
22/06:30am 5.5 2.1 4.2 91 0.6 NNE 11 13 6 7 1029.5 1029.5 0.0
22/06:00am 5.5 2.5 4.2 91 0.5 NE 9 11 5 6 1029.3 1029.3 0.0
22/05:30am 5.7 2.4 4.3 91 0.6 NNE 11 13 6 7 1029.1 1029.1 0.0
22/05:00am 5.9 3.0 4.7 92 0.5 NE 9 11 5 6 1028.9 1028.9 0.0
22/04:30am 6.4 4.1 5.0 91 0.6 NNE 6 7 3 4 1028.9 1028.9 0.0
22/04:00am 6.5 3.7 5.1 91 0.6 NNE 9 13 5 7 1029.0 1029.0 0.0
22/03:30am 7.0 4.3 5.6 91 0.6 NNE 9 11 5 6 1028.9 1028.9 0.0
22/03:00am 7.2 4.9 5.8 91 0.6 NE 7 9 4 5 1029.1 1029.1 0.0
22/02:30am 6.9 6.1 6.5 97 0.2 CALM 0 0 0 0 1029.2 1029.2 0.0
22/02:00am 7.2 6.5 6.8 97 0.2 CALM 0 0 0 0 1029.6 1029.6 0.0
22/01:30am 7.3 6.2 6.7 96 0.3 ESE 2 7 1 4 1029.7 1029.7 0.0
22/01:00am 7.3 6.5 6.6 95 0.3 CALM 0 0 0 0 1029.7 1029.7 0.0
22/12:30am 7.8 7.1 6.9 94 0.4 CALM 0 0 0 0 1029.6 1029.6 0.0
22/12:00am 7.9 7.2 6.8 93 0.5 SW 0 0 0 0 1029.6 1029.6 0.0
 
Date/Time
EST
Temp
°C
App
Temp
°C
Dew
Point
Rel
Hum
%
Delta-T
°C
Wind Press
QNH
hPa
Press
MSL
hPa
Rain
since 9 am
mm
Dir
 
Spd
km/h
Gust
km/h
Spd
kts
Gust
kts
21/11:30pm 8.4 7.7 6.9 90 0.7 CALM 0 0 0 0 1029.8 1029.8 0.0
21/11:00pm 8.8 8.1 6.8 87 0.9 CALM 0 0 0 0 1030.0 1030.0 0.0
21/10:30pm 9.3 8.5 6.6 83 1.3 CALM 0 0 0 0 1030.2 1030.2 0.0
21/10:00pm 10.0 9.2 6.7 80 1.5 SSE 0 6 0 3 1030.4 1030.4 0.0
21/09:30pm 10.2 9.4 6.7 79 1.6 CALM 0 6 0 3 1030.7 1030.7 0.0
21/09:00pm 10.7 9.9 6.5 75 2.0 CALM 0 0 0 0 1030.7 1030.7 0.0
21/08:30pm 11.4 9.4 6.3 71 2.4 S 6 9 3 5 1030.7 1030.7 0.0
21/08:00pm 12.0 9.8 6.3 68 2.7 S 7 11 4 6 1030.6 1030.6 0.0
21/07:30pm 12.5 9.6 6.5 67 2.9 SSE 11 17 6 9 1030.5 1030.5 0.0
21/07:00pm 12.6 9.8 7.1 69 2.6 S 11 15 6 8 1030.3 1030.3 0.0
21/06:30pm 12.7 10.0 7.2 69 2.7 S 11 19 6 10 1030.1 1030.1 0.0
21/06:00pm 13.0 10.6 6.8 66 3.0 S 9 17 5 9 1029.9 1029.9 0.0
21/05:30pm 13.4 9.9 7.0 65 3.1 S 15 26 8 14 1029.7 1029.7 0.0
21/05:00pm 14.1 10.6 7.2 63 3.3 SSW 15 22 8 12 1029.5 1029.5 0.0
21/04:30pm 14.3 11.2 7.1 62 3.5 SSW 13 24 7 13 1029.5 1029.5 0.0
21/04:00pm 14.2 10.1 6.1 58 3.8 SSW 17 28 9 15 1029.6 1029.6 0.0
21/03:30pm 14.6 10.4 5.9 56 4.2 SSW 17 26 9 14 1029.5 1029.5 0.0
21/03:00pm 14.8 11.3 5.6 54 4.3 SSW 13 20 7 11 1029.5 1029.5 0.0
21/02:30pm 14.9 11.4 5.4 53 4.5 SW 13 19 7 10 1029.8 1029.8 0.0
21/02:00pm 15.0 11.7 6.3 56 4.2 SW 13 24 7 13 1030.1 1030.1 0.0
21/01:30pm 15.0 11.4 6.6 57 4.1 S 15 28 8 15 1030.5 1030.5 0.0
21/01:00pm 14.8 10.6 5.9 55 4.2 SSW 17 28 9 15 1030.9 1030.9 0.0
21/12:30pm 14.5 10.6 5.3 54 4.3 SSW 15 26 8 14 1031.2 1031.2 0.0
21/12:00pm 15.3 11.6 6.3 55 4.3 S 15 20 8 11 1031.5 1031.5 0.0
21/11:30am 14.5 10.7 5.8 56 4.1 SSW 15 24 8 13 1031.8 1031.8 0.0
21/11:00am 14.7 10.7 5.0 52 4.5 SSW 15 24 8 13 1031.9 1031.9 0.0
21/10:30am 16.1 13.5 6.3 52 4.8 SSE 9 15 5 8 1031.8 1031.8 0.0
21/10:00am 14.4 10.8 5.0 53 4.4 S 13 20 7 11 1032.0 1032.0 0.0
21/09:30am 14.1 11.1 4.1 51 4.6 ESE 9 17 5 9 1031.8 1031.8 0.0
21/09:00am 14.3 11.4 4.6 52 4.5 SSE 9 19 5 10 1031.7 1031.7 0.0
21/08:30am 13.5 10.5 4.1 53 4.3 SE 9 19 5 10 1031.4 1031.4 0.0
21/08:00am 12.9 10.0 4.8 58 3.7 ESE 9 13 5 7 1031.4 1031.4 0.0
21/07:30am 12.7 10.3 5.1 60 3.5 SSE 7 13 4 7 1031.3 1031.3 0.0
21/07:00am 12.3 9.4 4.5 59 3.5 SE 9 17 5 9 1030.9 1030.9 0.0
21/06:30am 11.6 9.8 5.3 65 2.9 S 4 9 2 5 1030.7 1030.7 0.0
21/06:00am 11.1 9.4 6.0 71 2.4 S 4 7 2 4 1030.4 1030.4 0.0
21/05:30am 11.9 9.7 5.3 64 3.0 SE 6 15 3 8 1030.2 1030.2 0.0
21/05:00am 12.0 9.3 5.6 65 2.9 SSE 9 15 5 8 1030.1 1030.1 0.0
21/04:30am 11.6 10.8 8.3 80 1.6 S 2 9 1 5 1029.9 1029.9 0.0
21/04:00am 11.5 11.0 8.0 79 1.7 CALM 0 7 0 4 1029.8 1029.8 0.0
21/03:30am 11.4 11.0 8.4 82 1.5 CALM 0 0 0 0 1029.7 1029.7 0.0
21/03:00am 11.6 11.3 8.5 81 1.5 CALM 0 0 0 0 1029.8 1029.8 0.0
21/02:30am 11.6 10.5 8.3 80 1.6 ESE 4 9 2 5 1029.8 1029.8 0.0
21/02:00am 11.5 10.8 8.4 81 1.5 SSE 2 9 1 5 1030.1 1030.1 0.0
21/01:30am 11.6 10.5 8.5 81 1.5 ESE 4 7 2 4 1030.1 1030.1 0.0
21/01:00am 11.7 11.0 8.6 81 1.5 SSE 2 7 1 4 1030.2 1030.2 0.0
21/12:30am 11.6 10.1 8.5 81 1.5 SSE 6 9 3 5 1030.3 1030.3 0.0
21/12:00am 11.6 10.5 8.5 81 1.5 SSE 4 9 2 5 1030.2 1030.2 0.0
 
Date/Time
EST
Temp
°C
App
Temp
°C
Dew
Point
Rel
Hum
%
Delta-T
°C
Wind Press
QNH
hPa
Press
MSL
hPa
Rain
since 9 am
mm
Dir
 
Spd
km/h
Gust
km/h
Spd
kts
Gust
kts
20/11:30pm 11.3 9.8 8.5 83 1.4 S 6 9 3 5 1030.2 1030.2 0.0
20/11:00pm 10.8 10.1 8.4 85 1.2 S 2 7 1 4 1030.1 1030.1 0.0
20/10:30pm 10.6 10.1 8.0 84 1.3 CALM 0 0 0 0 1030.2 1030.2 0.0
20/10:00pm 11.3 10.1 8.2 81 1.5 SSE 4 9 2 5 1030.2 1030.2 0.0
20/09:30pm 11.9 10.3 8.2 78 1.8 S 6 11 3 6 1030.2 1030.2 0.0
20/09:00pm 12.5 10.0 8.2 75 2.1 SSE 11 17 6 9 1030.3 1030.3 0.0
20/08:30pm 12.5 9.6 8.0 74 2.2 SSE 13 20 7 11 1030.3 1030.3 0.0
20/08:00pm 12.4 9.8 7.9 74 2.2 SSE 11 19 6 10 1030.1 1030.1 0.0
20/07:30pm 12.8 9.8 7.9 72 2.4 SSE 13 22 7 12 1029.8 1029.8 0.0
20/07:00pm 12.9 9.3 8.2 73 2.3 SSE 17 26 9 14 1029.4 1029.4 0.0
20/06:30pm 13.1 10.0 7.3 68 2.8 SSE 13 22 7 12 1029.2 1029.2 0.0
20/06:00pm 13.2 10.2 7.9 70 2.6 S 13 28 7 15 1028.9 1028.9 0.0
20/05:30pm 13.3 10.2 8.8 74 2.3 S 15 24 8 13 1028.6 1028.6 0.0
20/05:00pm 13.4 10.3 8.7 73 2.3 SSW 15 26 8 14 1028.4 1028.4 0.0
20/04:30pm 13.5 10.2 8.1 70 2.7 S 15 24 8 13 1028.1 1028.1 0.0
20/04:00pm 14.0 10.1 8.6 70 2.7 S 19 35 10 19 1027.8 1027.8 0.0
20/03:30pm 14.6 11.4 8.5 67 3.1 SSW 15 30 8 16 1027.6 1027.6 0.0
20/03:00pm 14.0 10.3 7.8 66 3.0 S 17 28 9 15 1027.4 1027.4 0.0
20/02:30pm 14.6 11.4 8.5 67 3.1 S 15 26 8 14 1027.3 1027.3 0.0
20/02:00pm 14.0 10.0 8.2 68 2.9 S 19 30 10 16 1027.3 1027.3 0.0
20/01:30pm 13.7 9.5 8.1 69 2.8 S 20 32 11 17 1027.4 1027.4 0.0
20/01:00pm 14.0 10.4 8.2 68 2.9 S 17 26 9 14 1027.5 1027.5 0.0
20/12:30pm 13.9 10.5 9.1 73 2.4 SSW 17 26 9 14 1027.7 1027.7 0.0
20/12:00pm 13.9 11.2 9.1 73 2.4 SSW 13 22 7 12 1027.8 1027.8 0.0
20/11:30am 13.7 11.1 9.2 74 2.3 S 13 20 7 11 1028.0 1028.0 0.0
20/11:00am 13.0 9.5 8.9 76 2.0 SSW 17 24 9 13 1028.2 1028.2 0.0
20/10:30am 13.2 10.6 9.5 78 1.9 SW 13 20 7 11 1028.2 1028.2 0.0
20/10:00am 13.3 10.7 9.4 77 2.0 SSW 13 24 7 13 1028.4 1028.4 0.0
20/09:30am 12.3 10.1 9.5 83 1.4 SSW 11 17 6 9 1028.4 1028.4 0.0
20/09:00am 12.6 10.2 8.5 76 2.0 S 11 19 6 10 1028.1 1028.1 0.0
20/08:30am 12.2 10.4 9.4 83 1.4 S 9 15 5 8 1027.9 1027.9 0.0
20/08:00am 11.9 9.5 8.7 81 1.6 S 11 20 6 11 1027.6 1027.6 0.0
20/07:30am 11.3 9.9 9.0 86 1.1 SSW 6 11 3 6 1027.3 1027.3 0.0
20/07:00am 10.9 9.4 9.0 88 0.9 SSW 7 13 4 7 1027.0 1027.0 0.0
20/06:30am 10.9 10.6 8.7 86 1.1 CALM 0 0 0 0 1026.7 1026.7 0.0
20/06:00am 10.7 9.5 8.1 84 1.3 SW 4 11 2 6 1026.3 1026.3 0.0
20/05:30am 10.6 8.6 6.9 78 1.7 W 7 13 4 7 1025.9 1025.9 0.0
20/05:00am 10.4 8.5 6.9 79 1.6 W 6 11 3 6 1025.5 1025.5 0.0
20/04:30am 10.1 8.2 6.8 80 1.6 W 6 11 3 6 1025.2 1025.2 0.0
20/04:00am 10.3 8.8 6.6 78 1.7 WNW 4 9 2 5 1025.2 1025.2 0.0
20/03:30am 10.5 9.7 6.6 77 1.8 CALM 0 2 0 1 1025.2 1025.2 0.0
20/03:00am 11.1 9.9 6.6 74 2.1 SW 2 9 1 5 1025.1 1025.1 0.0
20/02:30am 11.0 8.6 6.9 76 1.9 W 9 15 5 8 1025.3 1025.3 0.0
20/02:00am 11.1 9.4 7.4 78 1.8 W 6 9 3 5 1025.4 1025.4 0.0
20/01:30am 11.1 10.5 7.4 78 1.8 CALM 0 6 0 3 1025.6 1025.6 0.0
20/01:00am 11.3 9.6 7.4 77 1.9 SW 6 13 3 7 1025.7 1025.7 0.0
20/12:30am 11.5 9.1 7.0 74 2.1 WSW 9 17 5 9 1025.5 1025.5 0.0
20/12:00am 11.9 10.8 7.0 72 2.3 SSW 2 13 1 7 1025.3 1025.3 0.0
 
Date/Time
EST
Temp
°C
App
Temp
°C
Dew
Point
Rel
Hum
%
Delta-T
°C
Wind Press
QNH
hPa
Press
MSL
hPa
Rain
since 9 am
mm
Dir
 
Spd
km/h
Gust
km/h
Spd
kts
Gust
kts
19/11:30pm 12.2 10.3 7.7 74 2.2 SW 7 11 4 6 1025.4 1025.4 0.0
19/11:00pm 12.3 10.1 7.8 74 2.2 SSW 9 13 5 7 1025.7 1025.7 0.0
19/10:30pm 12.4 10.5 7.7 73 2.3 SSW 7 17 4 9 1025.8 1025.8 0.0
19/10:00pm 12.4 10.7 7.5 72 2.4 SW 6 11 3 6 1025.9 1025.9 0.0
19/09:30pm 12.7 10.3 7.0 68 2.7 S 9 13 5 7 1025.9 1025.9 0.0
19/09:00pm 12.7 10.3 7.0 68 2.7 S 9 15 5 8 1025.8 1025.8 0.0
19/08:30pm 12.7 10.2 6.7 67 2.9 S 9 19 5 10 1025.6 1025.6 0.0
19/08:00pm 12.8 10.0 7.0 68 2.8 S 11 20 6 11 1025.5 1025.5 0.0
19/07:30pm 12.7 10.0 7.4 70 2.6 S 11 22 6 12 1025.2 1025.2 0.0
19/07:00pm 12.6 10.6 8.5 76 2.0 SSW 9 22 5 12 1024.9 1024.9 0.0
19/06:30pm 12.7 10.5 8.0 73 2.3 S 9 17 5 9 1024.8 1024.8 0.0
19/06:00pm 12.8 10.6 7.7 71 2.5 S 9 22 5 12 1024.7 1024.7 0.0
19/05:30pm 13.2 10.4 8.7 74 2.3 S 13 26 7 14 1024.4 1024.4 0.0
19/05:00pm 13.3 10.2 7.3 67 2.9 S 13 20 7 11 1024.2 1024.2 0.0
19/04:30pm 13.5 10.8 7.5 67 2.9 S 11 19 6 10 1024.1 1024.1 0.0
19/04:00pm 14.1 10.9 8.3 68 2.9 S 15 26 8 14 1024.0 1024.0 0.0
19/03:30pm 14.0 11.8 7.8 66 3.1 S 9 20 5 11 1023.8 1023.8 0.0
19/03:00pm 13.6 10.9 7.4 66 3.0 S 11 19 6 10 1023.8 1023.8 0.0
19/02:30pm 14.1 11.4 7.2 63 3.4 S 11 26 6 14 1023.8 1023.8 0.0
19/02:00pm 13.8 10.9 6.4 61 3.5 S 11 24 6 13 1024.0 1024.0 0.0
19/01:30pm 13.7 10.5 6.8 63 3.3 SSE 13 20 7 11 1024.1 1024.1 0.0
19/01:00pm 13.8 11.4 7.1 64 3.2 S 9 17 5 9 1024.4 1024.4 0.0
19/12:30pm 13.3 10.6 7.3 67 2.9 SSW 11 19 6 10 1024.7 1024.7 0.0
19/12:00pm 13.7 10.7 7.7 67 2.9 SSW 13 20 7 11 1024.9 1024.9 0.0
19/11:30am 13.8 11.4 7.1 64 3.3 SSW 9 19 5 10 1024.9 1024.9 0.0
19/11:00am 13.7 10.9 7.0 64 3.2 SSW 11 20 6 11 1025.0 1025.0 0.0
19/10:30am 13.2 9.9 6.5 64 3.2 SW 13 24 7 13 1025.2 1025.2 0.0

Other Formats:

Comma delimited format used in spreadsheet applications
http://www.bom.gov.au/fwo/IDV60801/IDV60801.95936.axf

JavaScript Object Notation format (JSON) in row-major order
http://www.bom.gov.au/fwo/IDV60801/IDV60801.95936.json